sensor_id;sensor_type;location;lat;lon;timestamp;P1;P2;P0
14880;PMS7003;7533;51.278;12.588;2023-07-02T00:00:14;0.00;0.00;0.00
14880;PMS7003;7533;51.278;12.588;2023-07-02T00:05:20;0.00;0.00;0.00
14880;PMS7003;7533;51.278;12.588;2023-07-02T00:10:24;0.50;0.25;0.00
14880;PMS7003;7533;51.278;12.588;2023-07-02T00:15:27;1.00;0.00;0.00
14880;PMS7003;7533;51.278;12.588;2023-07-02T00:20:30;0.50;0.50;0.00
14880;PMS7003;7533;51.278;12.588;2023-07-02T00:25:37;0.00;0.00;0.00
14880;PMS7003;7533;51.278;12.588;2023-07-02T00:30:40;0.00;0.00;0.00
14880;PMS7003;7533;51.278;12.588;2023-07-02T00:35:43;0.50;0.50;0.00
14880;PMS7003;7533;51.278;12.588;2023-07-02T00:40:47;1.00;0.00;0.00
14880;PMS7003;7533;51.278;12.588;2023-07-02T00:45:51;0.00;0.00;0.00
14880;PMS7003;7533;51.278;12.588;2023-07-02T00:50:54;0.00;0.00;0.00
14880;PMS7003;7533;51.278;12.588;2023-07-02T00:55:59;0.00;0.00;0.00
14880;PMS7003;7533;51.278;12.588;2023-07-02T01:01:02;0.50;0.00;0.00
14880;PMS7003;7533;51.278;12.588;2023-07-02T01:06:05;0.00;0.00;0.00
14880;PMS7003;7533;51.278;12.588;2023-07-02T01:11:09;0.00;0.00;0.00
14880;PMS7003;7533;51.278;12.588;2023-07-02T01:16:12;0.00;0.00;0.00
14880;PMS7003;7533;51.278;12.588;2023-07-02T01:21:17;0.00;0.00;0.00
14880;PMS7003;7533;51.278;12.588;2023-07-02T01:26:21;0.00;0.00;0.00
14880;PMS7003;7533;51.278;12.588;2023-07-02T01:31:24;0.00;0.00;0.00
14880;PMS7003;7533;51.278;12.588;2023-07-02T01:36:29;0.00;0.00;0.00
14880;PMS7003;7533;51.278;12.588;2023-07-02T01:41:33;0.00;0.00;0.00
14880;PMS7003;7533;51.278;12.588;2023-07-02T01:46:39;0.00;0.00;0.00
14880;PMS7003;7533;51.278;12.588;2023-07-02T01:51:45;1.50;0.00;0.00
14880;PMS7003;7533;51.278;12.588;2023-07-02T01:56:51;0.00;0.00;0.00
14880;PMS7003;7533;51.278;12.588;2023-07-02T02:01:54;0.00;0.00;0.00
14880;PMS7003;7533;51.278;12.588;2023-07-02T02:06:58;0.00;0.00;0.00
14880;PMS7003;7533;51.278;12.588;2023-07-02T02:12:01;0.00;0.00;0.00
14880;PMS7003;7533;51.278;12.588;2023-07-02T02:17:04;0.00;0.00;0.00
14880;PMS7003;7533;51.278;12.588;2023-07-02T02:22:08;0.00;0.00;0.00
14880;PMS7003;7533;51.278;12.588;2023-07-02T02:27:11;0.00;0.00;0.00
14880;PMS7003;7533;51.278;12.588;2023-07-02T02:32:14;0.00;0.00;0.00
14880;PMS7003;7533;51.278;12.588;2023-07-02T02:37:22;1.00;0.00;0.00
14880;PMS7003;7533;51.278;12.588;2023-07-02T02:42:25;1.00;0.00;0.00
14880;PMS7003;7533;51.278;12.588;2023-07-02T02:47:28;0.00;0.00;0.00
14880;PMS7003;7533;51.278;12.588;2023-07-02T02:52:33;0.00;0.00;0.00
14880;PMS7003;7533;51.278;12.588;2023-07-02T02:57:36;0.00;0.00;0.00
14880;PMS7003;7533;51.278;12.588;2023-07-02T03:02:40;0.00;0.00;0.00
14880;PMS7003;7533;51.278;12.588;2023-07-02T03:07:44;0.00;0.00;0.00
14880;PMS7003;7533;51.278;12.588;2023-07-02T03:12:47;0.50;0.50;0.00
14880;PMS7003;7533;51.278;12.588;2023-07-02T03:17:50;0.00;0.00;0.00
14880;PMS7003;7533;51.278;12.588;2023-07-02T03:22:55;0.00;0.00;0.00
14880;PMS7003;7533;51.278;12.588;2023-07-02T03:27:57;0.00;0.00;0.00
14880;PMS7003;7533;51.278;12.588;2023-07-02T03:33:00;0.00;0.00;0.00
14880;PMS7003;7533;51.278;12.588;2023-07-02T03:38:05;0.00;0.00;0.00
14880;PMS7003;7533;51.278;12.588;2023-07-02T03:43:08;0.00;0.00;0.00
14880;PMS7003;7533;51.278;12.588;2023-07-02T03:48:11;0.00;0.00;0.00
14880;PMS7003;7533;51.278;12.588;2023-07-02T03:53:15;0.00;0.00;0.00
14880;PMS7003;7533;51.278;12.588;2023-07-02T03:58:18;1.00;1.00;0.25
14880;PMS7003;7533;51.278;12.588;2023-07-02T04:03:21;2.25;1.75;0.50
14880;PMS7003;7533;51.278;12.588;2023-07-02T04:08:25;0.25;0.25;0.00
14880;PMS7003;7533;51.278;12.588;2023-07-02T04:13:29;3.50;1.50;1.00
14880;PMS7003;7533;51.278;12.588;2023-07-02T04:18:32;3.75;1.50;0.25
14880;PMS7003;7533;51.278;12.588;2023-07-02T04:23:37;1.00;1.00;0.00
14880;PMS7003;7533;51.278;12.588;2023-07-02T04:28:40;1.00;1.00;1.00
14880;PMS7003;7533;51.278;12.588;2023-07-02T04:33:43;1.50;1.50;1.00
14880;PMS7003;7533;51.278;12.588;2023-07-02T04:38:47;2.00;2.00;1.00
14880;PMS7003;7533;51.278;12.588;2023-07-02T04:43:50;2.25;2.00;1.50
14880;PMS7003;7533;51.278;12.588;2023-07-02T04:48:53;1.50;1.00;1.00
14880;PMS7003;7533;51.278;12.588;2023-07-02T04:53:57;2.00;2.00;1.00
14880;PMS7003;7533;51.278;12.588;2023-07-02T04:59:00;2.50;2.00;2.00
14880;PMS7003;7533;51.278;12.588;2023-07-02T05:04:04;2.50;2.50;1.00
14880;PMS7003;7533;51.278;12.588;2023-07-02T05:09:09;2.50;2.50;1.75
14880;PMS7003;7533;51.278;12.588;2023-07-02T05:14:12;1.50;1.50;1.00
14880;PMS7003;7533;51.278;12.588;2023-07-02T05:19:15;2.25;2.25;1.50
14880;PMS7003;7533;51.278;12.588;2023-07-02T05:24:19;3.50;3.50;2.00
14880;PMS7003;7533;51.278;12.588;2023-07-02T05:29:22;2.00;2.00;1.00
14880;PMS7003;7533;51.278;12.588;2023-07-02T05:34:25;2.75;2.75;1.25
14880;PMS7003;7533;51.278;12.588;2023-07-02T05:39:29;3.25;2.00;1.00
14880;PMS7003;7533;51.278;12.588;2023-07-02T05:44:32;3.75;3.75;2.00
14880;PMS7003;7533;51.278;12.588;2023-07-02T05:49:35;2.75;2.75;2.25
14880;PMS7003;7533;51.278;12.588;2023-07-02T05:54:40;5.00;5.00;2.50
14880;PMS7003;7533;51.278;12.588;2023-07-02T05:59:43;3.00;3.00;2.00
14880;PMS7003;7533;51.278;12.588;2023-07-02T06:04:46;4.25;4.00;2.00
14880;PMS7003;7533;51.278;12.588;2023-07-02T06:09:50;3.50;3.00;2.00
14880;PMS7003;7533;51.278;12.588;2023-07-02T06:14:53;7.50;4.75;2.50
14880;PMS7003;7533;51.278;12.588;2023-07-02T06:19:56;4.00;4.00;3.00
14880;PMS7003;7533;51.278;12.588;2023-07-02T06:25:00;3.75;3.75;2.00
14880;PMS7003;7533;51.278;12.588;2023-07-02T06:30:06;3.75;3.75;2.00
14880;PMS7003;7533;51.278;12.588;2023-07-02T06:35:10;4.50;3.50;2.00
14880;PMS7003;7533;51.278;12.588;2023-07-02T06:40:14;4.25;3.00;2.50
14880;PMS7003;7533;51.278;12.588;2023-07-02T06:45:17;4.50;2.50;2.00
14880;PMS7003;7533;51.278;12.588;2023-07-02T06:50:20;4.75;4.75;2.75
14880;PMS7003;7533;51.278;12.588;2023-07-02T06:55:25;3.50;3.50;2.75
14880;PMS7003;7533;51.278;12.588;2023-07-02T07:00:30;3.75;3.00;2.00
14880;PMS7003;7533;51.278;12.588;2023-07-02T07:05:34;2.50;2.00;1.50
14880;PMS7003;7533;51.278;12.588;2023-07-02T07:10:38;5.00;4.00;3.00
14880;PMS7003;7533;51.278;12.588;2023-07-02T07:15:41;4.00;3.00;2.00
14880;PMS7003;7533;51.278;12.588;2023-07-02T07:20:44;4.25;3.25;2.00
14880;PMS7003;7533;51.278;12.588;2023-07-02T07:25:49;3.00;3.00;2.25
14880;PMS7003;7533;51.278;12.588;2023-07-02T07:30:52;3.00;3.00;2.00
14880;PMS7003;7533;51.278;12.588;2023-07-02T07:35:55;2.50;2.00;1.00
14880;PMS7003;7533;51.278;12.588;2023-07-02T07:40:59;2.00;2.00;1.00
14880;PMS7003;7533;51.278;12.588;2023-07-02T07:46:02;5.50;3.25;3.00
14880;PMS7003;7533;51.278;12.588;2023-07-02T07:51:05;4.25;3.00;2.00
14880;PMS7003;7533;51.278;12.588;2023-07-02T07:56:09;2.00;2.00;1.75
14880;PMS7003;7533;51.278;12.588;2023-07-02T08:01:12;1.75;1.75;1.00
14880;PMS7003;7533;51.278;12.588;2023-07-02T08:06:15;6.25;6.00;5.00
14880;PMS7003;7533;51.278;12.588;2023-07-02T08:11:19;2.50;2.50;0.50
14880;PMS7003;7533;51.278;12.588;2023-07-02T08:16:22;1.25;1.25;1.00
14880;PMS7003;7533;51.278;12.588;2023-07-02T08:21:25;2.00;2.00;1.00
14880;PMS7003;7533;51.278;12.588;2023-07-02T08:26:29;2.00;2.00;1.00
14880;PMS7003;7533;51.278;12.588;2023-07-02T08:31:32;1.50;1.50;1.00
14880;PMS7003;7533;51.278;12.588;2023-07-02T08:36:36;3.00;3.00;2.00
14880;PMS7003;7533;51.278;12.588;2023-07-02T08:41:43;3.00;3.00;1.50
14880;PMS7003;7533;51.278;12.588;2023-07-02T08:46:47;3.00;2.25;1.00
14880;PMS7003;7533;51.278;12.588;2023-07-02T08:51:52;3.00;2.25;2.00
14880;PMS7003;7533;51.278;12.588;2023-07-02T08:56:56;1.00;1.00;1.00
14880;PMS7003;7533;51.278;12.588;2023-07-02T09:01:59;3.00;3.00;2.00
14880;PMS7003;7533;51.278;12.588;2023-07-02T09:07:03;3.00;3.00;2.00
14880;PMS7003;7533;51.278;12.588;2023-07-02T09:12:08;2.00;2.00;1.00
14880;PMS7003;7533;51.278;12.588;2023-07-02T09:17:11;2.25;1.00;1.00
14880;PMS7003;7533;51.278;12.588;2023-07-02T09:22:15;1.50;1.50;1.00
14880;PMS7003;7533;51.278;12.588;2023-07-02T09:27:19;1.75;1.75;1.00
14880;PMS7003;7533;51.278;12.588;2023-07-02T09:32:26;2.00;2.00;1.00
14880;PMS7003;7533;51.278;12.588;2023-07-02T09:37:29;2.00;1.50;1.25
14880;PMS7003;7533;51.278;12.588;2023-07-02T09:42:33;3.00;2.50;1.75
14880;PMS7003;7533;51.278;12.588;2023-07-02T09:47:44;3.25;2.25;1.00
14880;PMS7003;7533;51.278;12.588;2023-07-02T09:52:51;1.50;1.50;1.00
14880;PMS7003;7533;51.278;12.588;2023-07-02T09:57:56;4.00;2.75;2.00
14880;PMS7003;7533;51.278;12.588;2023-07-02T10:03:00;3.25;2.00;2.00
14880;PMS7003;7533;51.278;12.588;2023-07-02T10:08:11;4.25;2.75;2.00
14880;PMS7003;7533;51.278;12.588;2023-07-02T10:13:25;5.25;4.00;3.00
14880;PMS7003;7533;51.278;12.588;2023-07-02T10:18:30;2.75;2.75;2.25
14880;PMS7003;7533;51.278;12.588;2023-07-02T10:23:33;3.00;3.00;2.00
14880;PMS7003;7533;51.278;12.588;2023-07-02T10:28:38;5.00;3.50;2.00
14880;PMS7003;7533;51.278;12.588;2023-07-02T10:33:43;1.75;1.75;1.75
14880;PMS7003;7533;51.278;12.588;2023-07-02T10:38:46;7.00;6.00;2.00
14880;PMS7003;7533;51.278;12.588;2023-07-02T10:43:50;5.50;3.00;2.00
14880;PMS7003;7533;51.278;12.588;2023-07-02T10:48:53;3.00;3.00;2.00
14880;PMS7003;7533;51.278;12.588;2023-07-02T10:53:57;3.00;1.50;1.00
14880;PMS7003;7533;51.278;12.588;2023-07-02T10:59:02;4.75;4.75;3.00
14880;PMS7003;7533;51.278;12.588;2023-07-02T11:04:05;3.00;3.00;2.00
14880;PMS7003;7533;51.278;12.588;2023-07-02T11:09:15;2.50;2.50;1.00
14880;PMS7003;7533;51.278;12.588;2023-07-02T11:14:30;1.00;1.00;0.50
14880;PMS7003;7533;51.278;12.588;2023-07-02T11:19:34;3.25;3.25;1.75
14880;PMS7003;7533;51.278;12.588;2023-07-02T11:24:38;3.00;2.00;1.00
14880;PMS7003;7533;51.278;12.588;2023-07-02T11:29:42;3.50;3.00;2.00
14880;PMS7003;7533;51.278;12.588;2023-07-02T11:34:52;4.00;4.00;2.00
14880;PMS7003;7533;51.278;12.588;2023-07-02T11:39:56;2.25;2.25;1.75
14880;PMS7003;7533;51.278;12.588;2023-07-02T11:45:00;2.00;2.00;1.00
14880;PMS7003;7533;51.278;12.588;2023-07-02T11:50:03;3.50;3.50;1.75
14880;PMS7003;7533;51.278;12.588;2023-07-02T11:55:25;3.75;2.00;1.00
14880;PMS7003;7533;51.278;12.588;2023-07-02T12:00:29;3.50;3.50;1.00
14880;PMS7003;7533;51.278;12.588;2023-07-02T12:05:32;3.50;2.50;1.25
14880;PMS7003;7533;51.278;12.588;2023-07-02T12:10:35;5.00;4.75;2.50
14880;PMS7003;7533;51.278;12.588;2023-07-02T12:15:40;2.75;1.75;0.75
14880;PMS7003;7533;51.278;12.588;2023-07-02T12:20:44;3.00;1.75;1.00
14880;PMS7003;7533;51.278;12.588;2023-07-02T12:25:47;3.75;3.00;1.00
14880;PMS7003;7533;51.278;12.588;2023-07-02T12:30:52;2.50;2.00;0.50
14880;PMS7003;7533;51.278;12.588;2023-07-02T12:35:55;4.75;3.00;1.50
14880;PMS7003;7533;51.278;12.588;2023-07-02T12:40:58;1.00;1.00;0.00
14880;PMS7003;7533;51.278;12.588;2023-07-02T12:46:03;2.50;2.50;1.00
14880;PMS7003;7533;51.278;12.588;2023-07-02T12:51:06;4.00;3.00;1.25
14880;PMS7003;7533;51.278;12.588;2023-07-02T12:56:09;2.75;2.50;1.25
14880;PMS7003;7533;51.278;12.588;2023-07-02T13:01:15;3.50;3.50;1.50
14880;PMS7003;7533;51.278;12.588;2023-07-02T13:06:18;2.00;2.00;0.00
14880;PMS7003;7533;51.278;12.588;2023-07-02T13:11:20;4.25;2.00;1.00
14880;PMS7003;7533;51.278;12.588;2023-07-02T13:16:25;2.00;1.25;0.50
14880;PMS7003;7533;51.278;12.588;2023-07-02T13:21:28;1.50;1.50;1.00
14880;PMS7003;7533;51.278;12.588;2023-07-02T13:26:31;3.50;2.50;1.00
14880;PMS7003;7533;51.278;12.588;2023-07-02T13:31:35;2.00;2.00;1.00
14880;PMS7003;7533;51.278;12.588;2023-07-02T13:36:38;4.50;1.75;1.00
14880;PMS7003;7533;51.278;12.588;2023-07-02T13:41:41;1.00;1.00;1.00
14880;PMS7003;7533;51.278;12.588;2023-07-02T13:46:45;2.75;2.50;1.00
14880;PMS7003;7533;51.278;12.588;2023-07-02T13:51:50;4.75;3.25;1.50
14880;PMS7003;7533;51.278;12.588;2023-07-02T13:56:53;2.00;2.00;1.00
14880;PMS7003;7533;51.278;12.588;2023-07-02T14:01:57;2.50;2.50;1.25
14880;PMS7003;7533;51.278;12.588;2023-07-02T14:07:02;2.00;2.00;1.00
14880;PMS7003;7533;51.278;12.588;2023-07-02T14:12:06;3.00;3.00;1.00
14880;PMS7003;7533;51.278;12.588;2023-07-02T14:17:11;2.00;1.50;0.50
14880;PMS7003;7533;51.278;12.588;2023-07-02T14:22:14;3.75;3.00;0.25
14880;PMS7003;7533;51.278;12.588;2023-07-02T14:27:17;2.25;2.25;1.00
14880;PMS7003;7533;51.278;12.588;2023-07-02T14:32:22;1.75;1.75;0.75
14880;PMS7003;7533;51.278;12.588;2023-07-02T14:37:25;2.75;2.00;0.25
14880;PMS7003;7533;51.278;12.588;2023-07-02T14:42:32;3.25;2.75;1.00
14880;PMS7003;7533;51.278;12.588;2023-07-02T14:47:36;5.50;3.50;1.00
14880;PMS7003;7533;51.278;12.588;2023-07-02T14:52:39;5.00;2.50;1.00
14880;PMS7003;7533;51.278;12.588;2023-07-02T14:57:42;5.00;3.50;1.25
14880;PMS7003;7533;51.278;12.588;2023-07-02T15:02:47;3.75;3.25;1.00
14880;PMS7003;7533;51.278;12.588;2023-07-02T15:08:09;4.00;3.00;1.25
14880;PMS7003;7533;51.278;12.588;2023-07-02T15:13:14;3.75;3.00;1.00
14880;PMS7003;7533;51.278;12.588;2023-07-02T15:18:18;5.75;3.75;1.75
14880;PMS7003;7533;51.278;12.588;2023-07-02T15:23:22;3.50;3.25;1.50
14880;PMS7003;7533;51.278;12.588;2023-07-02T15:28:26;4.00;4.00;2.50
14880;PMS7003;7533;51.278;12.588;2023-07-02T15:33:31;5.50;2.75;1.00
14880;PMS7003;7533;51.278;12.588;2023-07-02T15:38:35;4.75;4.00;2.00
14880;PMS7003;7533;51.278;12.588;2023-07-02T15:43:39;4.75;3.25;1.00
14880;PMS7003;7533;51.278;12.588;2023-07-02T15:48:57;4.75;4.00;3.00
14880;PMS7003;7533;51.278;12.588;2023-07-02T15:54:02;3.25;3.25;1.00
14880;PMS7003;7533;51.278;12.588;2023-07-02T15:59:07;3.00;3.00;1.00
14880;PMS7003;7533;51.278;12.588;2023-07-02T16:04:11;4.00;3.00;2.00
14880;PMS7003;7533;51.278;12.588;2023-07-02T16:09:16;5.00;3.50;2.00
14880;PMS7003;7533;51.278;12.588;2023-07-02T16:14:19;3.50;1.75;0.75
14880;PMS7003;7533;51.278;12.588;2023-07-02T16:19:25;3.00;1.50;1.25
14880;PMS7003;7533;51.278;12.588;2023-07-02T16:24:28;6.00;4.00;1.00
14880;PMS7003;7533;51.278;12.588;2023-07-02T16:29:48;4.50;3.25;1.75
14880;PMS7003;7533;51.278;12.588;2023-07-02T16:34:52;5.50;3.00;1.00
14880;PMS7003;7533;51.278;12.588;2023-07-02T16:39:55;4.75;4.75;2.00
14880;PMS7003;7533;51.278;12.588;2023-07-02T16:44:58;4.50;2.50;2.00
14880;PMS7003;7533;51.278;12.588;2023-07-02T16:50:08;4.75;3.75;2.00
14880;PMS7003;7533;51.278;12.588;2023-07-02T16:55:12;5.00;3.75;1.50
14880;PMS7003;7533;51.278;12.588;2023-07-02T17:00:16;4.00;4.00;1.75
14880;PMS7003;7533;51.278;12.588;2023-07-02T17:05:21;3.25;2.00;1.00
14880;PMS7003;7533;51.278;12.588;2023-07-02T17:10:24;4.75;4.00;2.00
14880;PMS7003;7533;51.278;12.588;2023-07-02T17:15:27;2.25;2.25;1.00
14880;PMS7003;7533;51.278;12.588;2023-07-02T17:20:31;4.75;4.00;1.75
14880;PMS7003;7533;51.278;12.588;2023-07-02T17:25:36;5.25;4.00;2.00
14880;PMS7003;7533;51.278;12.588;2023-07-02T17:30:39;4.50;4.50;2.00
14880;PMS7003;7533;51.278;12.588;2023-07-02T17:35:45;4.50;2.50;1.00
14880;PMS7003;7533;51.278;12.588;2023-07-02T17:40:48;2.50;2.50;2.00
14880;PMS7003;7533;51.278;12.588;2023-07-02T17:45:51;3.00;3.00;1.50
14880;PMS7003;7533;51.278;12.588;2023-07-02T17:50:57;3.50;2.50;1.00
14880;PMS7003;7533;51.278;12.588;2023-07-02T17:56:01;6.50;4.00;2.00
14880;PMS7003;7533;51.278;12.588;2023-07-02T18:01:04;3.75;3.75;1.00
14880;PMS7003;7533;51.278;12.588;2023-07-02T18:06:08;3.25;3.25;2.00
14880;PMS7003;7533;51.278;12.588;2023-07-02T18:11:11;3.50;2.75;1.50
14880;PMS7003;7533;51.278;12.588;2023-07-02T18:16:14;3.25;2.75;1.00
14880;PMS7003;7533;51.278;12.588;2023-07-02T18:21:18;7.50;6.00;2.00
14880;PMS7003;7533;51.278;12.588;2023-07-02T18:26:21;5.25;4.25;1.00
14880;PMS7003;7533;51.278;12.588;2023-07-02T18:31:24;5.75;3.00;1.25
14880;PMS7003;7533;51.278;12.588;2023-07-02T18:36:29;4.00;3.25;1.00
14880;PMS7003;7533;51.278;12.588;2023-07-02T18:41:31;5.00;3.50;1.00
14880;PMS7003;7533;51.278;12.588;2023-07-02T18:46:34;4.50;3.00;1.25
14880;PMS7003;7533;51.278;12.588;2023-07-02T18:51:39;8.50;4.25;3.00
14880;PMS7003;7533;51.278;12.588;2023-07-02T18:56:43;6.25;4.00;1.50
14880;PMS7003;7533;51.278;12.588;2023-07-02T19:01:46;3.75;3.75;1.00
14880;PMS7003;7533;51.278;12.588;2023-07-02T19:06:52;7.50;6.00;2.25
14880;PMS7003;7533;51.278;12.588;2023-07-02T19:11:58;4.25;3.75;2.00
14880;PMS7003;7533;51.278;12.588;2023-07-02T19:17:16;5.00;4.00;1.75
14880;PMS7003;7533;51.278;12.588;2023-07-02T19:22:24;6.00;6.00;3.00
14880;PMS7003;7533;51.278;12.588;2023-07-02T19:27:27;5.50;3.00;2.00
14880;PMS7003;7533;51.278;12.588;2023-07-02T19:32:30;7.50;6.00;2.50
14880;PMS7003;7533;51.278;12.588;2023-07-02T19:37:47;7.75;4.75;2.50
14880;PMS7003;7533;51.278;12.588;2023-07-02T19:42:50;6.00;5.00;2.00
14880;PMS7003;7533;51.278;12.588;2023-07-02T19:47:58;3.75;3.75;1.25
14880;PMS7003;7533;51.278;12.588;2023-07-02T19:53:02;6.00;4.00;1.50
14880;PMS7003;7533;51.278;12.588;2023-07-02T19:58:05;4.00;4.00;2.00
14880;PMS7003;7533;51.278;12.588;2023-07-02T20:03:08;8.00;4.50;1.25
14880;PMS7003;7533;51.278;12.588;2023-07-02T20:08:14;5.50;4.00;2.50
14880;PMS7003;7533;51.278;12.588;2023-07-02T20:13:18;6.75;5.75;2.75
14880;PMS7003;7533;51.278;12.588;2023-07-02T20:18:22;9.75;5.50;2.00
14880;PMS7003;7533;51.278;12.588;2023-07-02T20:23:26;7.25;6.25;2.00
14880;PMS7003;7533;51.278;12.588;2023-07-02T20:28:29;5.75;5.75;3.00
14880;PMS7003;7533;51.278;12.588;2023-07-02T20:33:32;7.00;6.00;2.00
14880;PMS7003;7533;51.278;12.588;2023-07-02T20:38:36;6.25;4.75;2.25
14880;PMS7003;7533;51.278;12.588;2023-07-02T20:43:43;6.00;4.00;1.50
14880;PMS7003;7533;51.278;12.588;2023-07-02T20:48:48;6.50;5.00;2.50
14880;PMS7003;7533;51.278;12.588;2023-07-02T20:53:54;8.75;7.00;2.50
14880;PMS7003;7533;51.278;12.588;2023-07-02T20:58:57;5.50;4.00;2.00
14880;PMS7003;7533;51.278;12.588;2023-07-02T21:03:59;6.75;4.25;3.00
14880;PMS7003;7533;51.278;12.588;2023-07-02T21:09:09;5.75;4.75;2.00
14880;PMS7003;7533;51.278;12.588;2023-07-02T21:14:12;7.25;4.00;2.00
14880;PMS7003;7533;51.278;12.588;2023-07-02T21:19:16;5.50;4.00;2.00
14880;PMS7003;7533;51.278;12.588;2023-07-02T21:24:21;4.50;4.50;2.25
14880;PMS7003;7533;51.278;12.588;2023-07-02T21:29:24;4.50;3.75;2.00
14880;PMS7003;7533;51.278;12.588;2023-07-02T21:34:27;6.75;4.50;2.00
14880;PMS7003;7533;51.278;12.588;2023-07-02T21:39:32;6.25;5.00;2.00
14880;PMS7003;7533;51.278;12.588;2023-07-02T21:44:35;5.75;5.00;2.00
14880;PMS7003;7533;51.278;12.588;2023-07-02T21:49:38;4.50;3.75;2.00
14880;PMS7003;7533;51.278;12.588;2023-07-02T21:54:42;5.50;4.50;1.00
14880;PMS7003;7533;51.278;12.588;2023-07-02T21:59:45;5.25;5.25;2.25
14880;PMS7003;7533;51.278;12.588;2023-07-02T22:04:48;3.50;3.50;2.00
14880;PMS7003;7533;51.278;12.588;2023-07-02T22:09:52;6.00;4.00;2.00
14880;PMS7003;7533;51.278;12.588;2023-07-02T22:14:55;4.75;4.00;3.00
14880;PMS7003;7533;51.278;12.588;2023-07-02T22:19:58;3.75;3.75;2.00
14880;PMS7003;7533;51.278;12.588;2023-07-02T22:25:04;8.00;4.25;1.00
14880;PMS7003;7533;51.278;12.588;2023-07-02T22:30:09;6.25;4.00;2.00
14880;PMS7003;7533;51.278;12.588;2023-07-02T22:35:14;4.00;3.00;2.00
14880;PMS7003;7533;51.278;12.588;2023-07-02T22:40:18;3.75;3.75;2.00
14880;PMS7003;7533;51.278;12.588;2023-07-02T22:45:22;5.75;3.00;1.50
14880;PMS7003;7533;51.278;12.588;2023-07-02T22:50:25;5.00;5.00;2.25
14880;PMS7003;7533;51.278;12.588;2023-07-02T22:55:29;3.00;2.75;1.50
14880;PMS7003;7533;51.278;12.588;2023-07-02T23:00:32;5.25;3.50;1.00
14880;PMS7003;7533;51.278;12.588;2023-07-02T23:05:36;6.00;5.00;1.75
14880;PMS7003;7533;51.278;12.588;2023-07-02T23:10:40;7.50;3.25;1.50
14880;PMS7003;7533;51.278;12.588;2023-07-02T23:15:43;6.75;6.00;2.50
14880;PMS7003;7533;51.278;12.588;2023-07-02T23:20:46;5.00;4.00;2.00
14880;PMS7003;7533;51.278;12.588;2023-07-02T23:25:50;4.75;3.75;2.00
14880;PMS7003;7533;51.278;12.588;2023-07-02T23:30:53;4.75;4.75;2.50
14880;PMS7003;7533;51.278;12.588;2023-07-02T23:36:00;4.25;4.00;1.00
14880;PMS7003;7533;51.278;12.588;2023-07-02T23:41:04;4.50;2.75;1.00
14880;PMS7003;7533;51.278;12.588;2023-07-02T23:46:08;3.75;3.75;1.00
14880;PMS7003;7533;51.278;12.588;2023-07-02T23:51:11;4.25;2.50;1.25
14880;PMS7003;7533;51.278;12.588;2023-07-02T23:56:15;3.75;2.75;1.00
